createdAt,value
2024-05-09T00:00:38.751Z,9.29
2024-05-09T00:03:07.614Z,9.27
2024-05-09T00:05:34.748Z,9.24
2024-05-09T00:08:01.662Z,9.21
2024-05-09T00:10:35.353Z,9.19
2024-05-09T00:13:04.940Z,9.17
2024-05-09T00:15:32.844Z,9.16
2024-05-09T00:17:59.417Z,9.14
2024-05-09T00:20:33.674Z,9.10
2024-05-09T00:23:06.263Z,9.05
2024-05-09T00:25:32.803Z,8.93
2024-05-09T00:27:59.335Z,8.88
2024-05-09T00:30:33.315Z,8.90
2024-05-09T00:33:03.182Z,8.93
2024-05-09T00:35:30.701Z,8.97
2024-05-09T00:37:57.470Z,8.96
2024-05-09T00:40:34.745Z,8.91
2024-05-09T00:43:05.802Z,8.90
2024-05-09T00:45:33.651Z,8.89
2024-05-09T00:48:01.759Z,8.89
2024-05-09T00:50:35.655Z,8.82
2024-05-09T00:53:05.198Z,8.69
2024-05-09T00:55:31.850Z,8.59
2024-05-09T00:57:58.291Z,8.50
2024-05-09T01:00:31.569Z,8.44
2024-05-09T01:03:05.046Z,8.38
2024-05-09T01:05:32.190Z,8.33
2024-05-09T01:07:58.902Z,8.33
2024-05-09T01:10:32.300Z,8.37
2024-05-09T01:13:02.743Z,8.40
2024-05-09T01:15:29.317Z,8.43
2024-05-09T01:17:56.287Z,8.42
2024-05-09T01:20:32.034Z,8.35
2024-05-09T01:23:07.115Z,8.30
2024-05-09T01:25:34.820Z,8.26
2024-05-09T01:28:01.440Z,8.21
2024-05-09T01:30:34.110Z,8.10
2024-05-09T01:33:04.060Z,7.98
2024-05-09T01:35:30.942Z,7.96
2024-05-09T01:37:57.647Z,7.86
2024-05-09T01:40:33.465Z,7.68
2024-05-09T01:43:04.428Z,7.41
2024-05-09T01:45:31.071Z,7.22
2024-05-09T01:47:57.751Z,7.08
2024-05-09T01:50:35.831Z,6.98
2024-05-09T01:53:05.695Z,6.89
2024-05-09T01:55:32.354Z,6.87
2024-05-09T01:57:58.791Z,6.84
2024-05-09T02:00:36.359Z,6.83
2024-05-09T02:03:08.612Z,6.82
2024-05-09T02:05:35.597Z,6.72
2024-05-09T02:08:02.275Z,6.66
2024-05-09T02:10:32.633Z,6.64
2024-05-09T02:13:00.300Z,6.68
2024-05-09T02:15:26.767Z,6.79
2024-05-09T02:17:53.588Z,6.86
2024-05-09T02:20:30.065Z,6.87
2024-05-09T02:23:03.346Z,6.84
2024-05-09T02:25:30.080Z,6.84
2024-05-09T02:27:56.609Z,6.87
2024-05-09T02:30:30.683Z,6.95
2024-05-09T02:33:05.546Z,7.02
2024-05-09T02:35:32.380Z,6.98
2024-05-09T02:37:59.086Z,6.87
2024-05-09T02:40:33.746Z,6.79
2024-05-09T02:43:04.474Z,6.72
2024-05-09T02:45:31.031Z,6.67
2024-05-09T02:47:57.882Z,6.64
2024-05-09T02:50:33.134Z,6.61
2024-05-09T02:53:04.608Z,6.57
2024-05-09T02:55:31.196Z,6.55
2024-05-09T02:57:57.926Z,6.55
2024-05-09T03:00:30.097Z,6.48
2024-05-09T03:03:05.235Z,6.44
2024-05-09T03:05:32.559Z,6.48
2024-05-09T03:07:59.303Z,6.57
2024-05-09T03:10:28.909Z,6.67
2024-05-09T03:12:59.754Z,6.79
2024-05-09T03:15:26.284Z,6.90
2024-05-09T03:17:52.738Z,7.00
2024-05-09T03:20:23.935Z,7.07
2024-05-09T03:22:56.728Z,7.15
2024-05-09T03:25:23.581Z,7.26
2024-05-09T03:27:50.022Z,7.39
2024-05-09T03:30:28.879Z,7.52
2024-05-09T03:33:02.396Z,7.66
2024-05-09T03:35:29.293Z,7.77
2024-05-09T03:37:55.953Z,7.88
2024-05-09T03:40:26.537Z,7.96
2024-05-09T03:42:55.719Z,8.02
2024-05-09T03:45:22.176Z,8.09
2024-05-09T03:47:48.986Z,8.17
2024-05-09T03:50:22.597Z,8.26
2024-05-09T03:52:56.069Z,8.33
2024-05-09T03:55:22.542Z,8.38
2024-05-09T03:57:48.983Z,8.42
2024-05-09T04:00:22.115Z,8.46
2024-05-09T04:02:53.344Z,8.51
2024-05-09T04:05:20.011Z,8.55
2024-05-09T04:07:46.671Z,8.60
2024-05-09T04:10:21.157Z,8.66
2024-05-09T04:12:54.420Z,8.73
2024-05-09T04:15:20.925Z,8.78
2024-05-09T04:17:50.850Z,8.82
2024-05-09T04:20:28.761Z,8.86
2024-05-09T04:23:03.558Z,8.89
2024-05-09T04:25:31.438Z,8.94
2024-05-09T04:27:57.867Z,9.00
2024-05-09T04:30:34.372Z,9.06
2024-05-09T04:33:05.669Z,9.12
2024-05-09T04:35:32.576Z,9.19
2024-05-09T04:37:59.863Z,9.26
2024-05-09T04:40:33.083Z,9.33
2024-05-09T04:43:03.403Z,9.39
2024-05-09T04:45:30.038Z,9.46
2024-05-09T04:47:56.921Z,9.53
2024-05-09T04:50:30.406Z,9.59
2024-05-09T04:53:03.276Z,9.66
2024-05-09T04:55:30.287Z,9.73
2024-05-09T04:57:56.935Z,9.79
2024-05-09T05:00:32.370Z,9.84
2024-05-09T05:03:08.311Z,9.91
2024-05-09T05:05:39.906Z,9.96
2024-05-09T05:08:17.246Z,10.00
2024-05-09T05:10:45.136Z,10.05
2024-05-09T05:13:15.974Z,10.09
2024-05-09T05:15:43.333Z,10.14
2024-05-09T05:18:09.913Z,10.20
2024-05-09T05:20:36.655Z,10.25
2024-05-09T05:23:03.391Z,10.30
2024-05-09T05:25:29.975Z,10.36
2024-05-09T05:27:56.503Z,10.43
2024-05-09T05:30:28.973Z,10.49
2024-05-09T05:33:00.004Z,10.55
2024-05-09T05:35:26.952Z,10.61
2024-05-09T05:37:54.144Z,10.67
2024-05-09T05:40:28.217Z,10.74
2024-05-09T05:43:09.347Z,10.83
2024-05-09T05:45:36.183Z,10.93
2024-05-09T05:48:03.831Z,11.04
2024-05-09T05:50:35.868Z,11.11
2024-05-09T05:53:08.598Z,11.19
2024-05-09T05:55:36.408Z,11.26
2024-05-09T05:58:03.363Z,11.29
2024-05-09T06:00:37.800Z,11.31
2024-05-09T06:03:10.255Z,11.33
2024-05-09T06:05:42.577Z,11.33
2024-05-09T06:08:09.444Z,11.35
2024-05-09T06:10:39.415Z,11.41
2024-05-09T06:13:10.143Z,11.50
2024-05-09T06:15:36.539Z,11.61
2024-05-09T06:18:07.427Z,11.71
2024-05-09T06:20:36.833Z,11.83
2024-05-09T06:23:05.610Z,11.94
2024-05-09T06:25:32.471Z,12.06
2024-05-09T06:28:00.134Z,12.20
2024-05-09T06:30:36.564Z,12.31
2024-05-09T06:33:06.971Z,12.47
2024-05-09T06:35:34.237Z,12.62
2024-05-09T06:38:01.459Z,12.76
2024-05-09T06:40:36.665Z,12.85
2024-05-09T06:43:12.852Z,12.92
2024-05-09T06:45:39.438Z,12.98
2024-05-09T06:48:07.001Z,13.05
2024-05-09T06:50:37.740Z,13.12
2024-05-09T06:53:06.409Z,13.19
2024-05-09T06:55:33.209Z,13.24
2024-05-09T06:57:59.849Z,13.29
2024-05-09T07:00:35.231Z,13.33
2024-05-09T07:03:10.299Z,13.40
2024-05-09T07:05:37.527Z,13.49
2024-05-09T07:08:05.491Z,13.58
2024-05-09T07:10:35.512Z,13.67
2024-05-09T07:13:03.152Z,13.73
2024-05-09T07:15:31.009Z,13.79
2024-05-09T07:17:58.098Z,13.86
2024-05-09T07:20:32.481Z,13.90
2024-05-09T07:23:02.950Z,13.93
2024-05-09T07:25:30.993Z,13.96
2024-05-09T07:27:57.863Z,14.06
2024-05-09T07:30:30.803Z,14.19
2024-05-09T07:33:01.083Z,14.27
2024-05-09T07:35:28.517Z,14.29
2024-05-09T07:37:55.462Z,14.31
2024-05-09T07:40:31.827Z,14.31
2024-05-09T07:43:07.122Z,14.28
2024-05-09T07:52:23.645Z,14.26
2024-05-09T07:53:39.405Z,14.30
2024-05-09T07:56:10.118Z,14.31
2024-05-09T07:58:37.836Z,14.32
2024-05-09T08:01:05.103Z,14.40
2024-05-09T08:03:33.995Z,14.49
2024-05-09T08:06:01.018Z,14.59
2024-05-09T08:08:27.631Z,14.71
2024-05-09T08:10:57.526Z,14.81
2024-05-09T08:13:24.434Z,14.91
2024-05-09T08:15:52.108Z,15.00
2024-05-09T08:18:19.638Z,15.06
2024-05-09T08:20:47.793Z,15.10
2024-05-09T08:23:14.482Z,15.14
2024-05-09T08:25:45.427Z,15.21
2024-05-09T08:28:12.845Z,15.27
2024-05-09T08:30:41.879Z,15.29
2024-05-09T08:33:10.831Z,15.30
2024-05-09T08:35:38.605Z,15.35
2024-05-09T08:38:07.490Z,15.42
2024-05-09T08:40:36.440Z,15.47
2024-05-09T08:43:11.580Z,15.55
2024-05-09T08:45:43.119Z,15.60
2024-05-09T08:48:12.093Z,15.67
2024-05-09T08:50:45.543Z,15.72
2024-05-09T08:53:14.623Z,15.74
2024-05-09T08:55:43.430Z,15.76
2024-05-09T08:58:13.714Z,15.83
2024-05-09T09:00:41.307Z,15.91
2024-05-09T09:03:08.564Z,16.01
2024-05-09T09:05:38.068Z,16.10
2024-05-09T09:08:06.487Z,16.17
2024-05-09T09:10:33.637Z,16.16
2024-05-09T09:13:04.010Z,16.06
2024-05-09T09:15:30.850Z,16.00
2024-05-09T09:17:58.849Z,15.98
2024-05-09T09:20:34.112Z,16.08
2024-05-09T09:23:04.821Z,16.21
2024-05-09T09:25:31.710Z,16.35
2024-05-09T09:27:58.614Z,16.45
2024-05-09T09:30:36.209Z,16.58
2024-05-09T09:33:08.335Z,16.71
2024-05-09T09:35:36.055Z,16.71
2024-05-09T09:38:04.990Z,16.70
2024-05-09T09:40:39.193Z,16.71
2024-05-09T09:43:13.330Z,16.73
2024-05-09T09:45:41.923Z,16.67
2024-05-09T09:48:08.616Z,16.63
2024-05-09T09:50:36.260Z,16.61
2024-05-09T09:53:03.515Z,16.60
2024-05-09T09:55:31.788Z,16.56
2024-05-09T09:57:58.428Z,16.53
2024-05-09T10:00:30.615Z,16.52
2024-05-09T10:03:00.037Z,16.63
2024-05-09T10:05:27.166Z,16.73
2024-05-09T10:07:54.229Z,16.80
2024-05-09T10:10:31.507Z,16.89
2024-05-09T10:13:06.496Z,17.05
2024-05-09T10:15:46.367Z,17.24
2024-05-09T10:18:13.895Z,17.37
2024-05-09T10:20:41.267Z,17.36
2024-05-09T10:23:26.859Z,17.27
2024-05-09T10:26:03.502Z,17.12
2024-05-09T10:28:36.218Z,17.16
2024-05-09T10:31:09.891Z,17.23
2024-05-09T10:33:48.353Z,17.31
2024-05-09T10:36:24.452Z,17.31
2024-05-09T10:38:54.807Z,17.31
2024-05-09T10:41:22.181Z,17.40
2024-05-09T10:43:49.430Z,17.56
2024-05-09T10:46:18.325Z,17.73
2024-05-09T10:48:45.389Z,17.76
2024-05-09T10:51:12.193Z,17.76
2024-05-09T10:53:45.761Z,17.88
2024-05-09T10:56:13.233Z,18.09
2024-05-09T10:58:39.877Z,18.25
2024-05-09T11:01:07.742Z,18.38
2024-05-09T11:03:34.599Z,18.68
2024-05-09T11:06:01.545Z,18.97
2024-05-09T11:08:28.265Z,19.11
2024-05-09T11:10:55.806Z,19.15
2024-05-09T11:13:29.019Z,19.25
2024-05-09T11:15:55.696Z,19.52
2024-05-09T11:18:25.363Z,19.75
2024-05-09T11:20:53.840Z,20.07
2024-05-09T11:23:21.699Z,20.38
2024-05-09T11:25:52.121Z,20.85
2024-05-09T11:28:19.206Z,21.24
2024-05-09T11:30:46.440Z,21.38
2024-05-09T11:33:14.469Z,21.59
2024-05-09T11:35:41.767Z,22.10
2024-05-09T11:38:08.604Z,22.74
2024-05-09T11:40:36.433Z,23.31
2024-05-09T11:43:03.251Z,23.71
2024-05-09T11:45:29.907Z,23.84
2024-05-09T11:47:56.519Z,24.00
2024-05-09T11:50:29.798Z,24.01
2024-05-09T11:52:59.465Z,24.06
2024-05-09T11:55:28.131Z,24.32
2024-05-09T11:57:55.333Z,24.46
2024-05-09T12:00:29.563Z,24.71
2024-05-09T12:03:04.144Z,25.09
2024-05-09T12:05:30.861Z,25.51
2024-05-09T12:07:57.517Z,25.85
2024-05-09T12:10:32.518Z,26.25
2024-05-09T12:13:02.904Z,26.73
2024-05-09T12:15:30.456Z,27.10
2024-05-09T12:18:00.065Z,27.39
2024-05-09T12:20:35.888Z,27.19
2024-05-09T12:23:05.175Z,26.80
2024-05-09T12:25:31.848Z,26.32
2024-05-09T12:27:58.376Z,25.88
2024-05-09T12:30:33.315Z,25.32
2024-05-09T12:33:06.033Z,24.70
2024-05-09T12:35:32.884Z,24.47
2024-05-09T12:37:59.920Z,24.51
2024-05-09T12:40:34.614Z,24.46
2024-05-09T12:43:06.487Z,24.33
2024-05-09T12:45:33.681Z,24.33
2024-05-09T12:48:00.567Z,24.59
2024-05-09T12:50:32.512Z,24.79
2024-05-09T12:53:02.406Z,24.81
2024-05-09T12:55:33.460Z,24.88
2024-05-09T12:58:06.952Z,24.78
2024-05-09T13:00:34.519Z,24.69
2024-05-09T13:03:01.881Z,24.89
2024-05-09T13:05:29.234Z,25.26
2024-05-09T13:07:56.159Z,25.49
2024-05-09T13:10:29.121Z,25.23
2024-05-09T13:12:59.316Z,25.11
2024-05-09T13:15:26.112Z,25.11
2024-05-09T13:17:52.779Z,25.16
2024-05-09T13:20:28.706Z,25.43
2024-05-09T13:23:00.874Z,25.66
2024-05-09T13:25:27.396Z,25.92
2024-05-09T13:27:54.141Z,25.95
2024-05-09T13:30:29.176Z,25.69
2024-05-09T13:33:04.391Z,25.67
2024-05-09T13:35:31.790Z,25.58
2024-05-09T13:37:59.940Z,25.18
2024-05-09T13:40:32.827Z,24.88
2024-05-09T13:43:02.471Z,24.72
2024-05-09T13:45:29.477Z,24.78
2024-05-09T13:47:56.422Z,24.85
2024-05-09T13:50:31.162Z,24.77
2024-05-09T13:53:01.717Z,24.61
2024-05-09T13:55:28.427Z,24.44
2024-05-09T13:57:54.828Z,24.43
2024-05-09T14:02:50.722Z,24.50
2024-05-09T14:05:17.522Z,24.38
2024-05-09T14:07:44.559Z,24.15
2024-05-09T14:10:19.825Z,23.85
2024-05-09T14:12:52.508Z,23.66
2024-05-09T14:15:19.003Z,23.68
2024-05-09T14:17:46.000Z,23.74
2024-05-09T14:20:16.622Z,23.59
2024-05-09T14:22:49.772Z,23.21
2024-05-09T14:25:16.370Z,23.02
2024-05-09T14:27:43.132Z,22.90
2024-05-09T14:30:15.053Z,22.86
2024-05-09T14:32:49.274Z,23.13
2024-05-09T14:35:15.978Z,23.41
2024-05-09T14:37:42.385Z,23.64
2024-05-09T14:40:14.770Z,23.95
2024-05-09T14:42:48.145Z,24.23
2024-05-09T14:45:14.691Z,24.29
2024-05-09T14:47:41.222Z,24.27
2024-05-09T14:50:11.103Z,24.30
2024-05-09T14:52:40.438Z,24.41
2024-05-09T14:55:08.561Z,24.58
2024-05-09T14:57:37.313Z,24.67
2024-05-09T15:00:06.937Z,24.72
2024-05-09T15:02:35.911Z,24.94
2024-05-09T15:05:02.825Z,25.02
2024-05-09T15:07:29.850Z,25.12
2024-05-09T15:09:56.589Z,25.24
2024-05-09T15:12:23.155Z,25.07
2024-05-09T15:14:49.692Z,24.64
2024-05-09T15:17:16.226Z,24.17
2024-05-09T15:19:44.620Z,23.83
2024-05-09T15:22:15.731Z,23.57
2024-05-09T15:24:44.670Z,23.63
2024-05-09T15:27:11.680Z,23.85
2024-05-09T15:29:38.835Z,24.09
2024-05-09T15:32:05.624Z,24.31
2024-05-09T15:34:32.396Z,24.52
2024-05-09T15:36:59.117Z,24.59
2024-05-09T15:39:27.733Z,24.42
2024-05-09T15:41:56.012Z,24.18
2024-05-09T15:44:24.693Z,23.95
2024-05-09T15:46:51.843Z,23.84
2024-05-09T15:49:18.992Z,23.77
2024-05-09T15:51:45.548Z,23.66
2024-05-09T15:54:12.064Z,23.55
2024-05-09T15:56:38.595Z,23.38
2024-05-09T15:59:05.037Z,23.17
2024-05-09T16:01:31.564Z,22.96
2024-05-09T16:03:58.391Z,22.64
2024-05-09T16:06:25.039Z,22.31
2024-05-09T16:08:51.471Z,22.02
2024-05-09T16:11:19.755Z,21.74
2024-05-09T16:13:46.488Z,21.53
2024-05-09T16:16:13.116Z,21.29
2024-05-09T16:18:39.786Z,21.04
2024-05-09T16:21:06.186Z,20.81
2024-05-09T16:23:32.837Z,20.51
2024-05-09T16:25:59.680Z,20.22
2024-05-09T16:28:27.090Z,19.94
2024-05-09T16:30:54.112Z,19.66
2024-05-09T16:33:23.361Z,19.36
2024-05-09T16:35:49.981Z,19.12
2024-05-09T16:38:16.656Z,18.94
2024-05-09T16:40:43.265Z,18.80
2024-05-09T16:43:10.863Z,18.69
2024-05-09T16:45:38.931Z,18.56
2024-05-09T16:48:06.505Z,18.37
2024-05-09T16:50:35.098Z,18.07
2024-05-09T16:53:03.973Z,17.74
2024-05-09T16:55:31.118Z,17.50
2024-05-09T16:57:57.764Z,17.36
2024-05-09T17:00:35.635Z,17.31
2024-05-09T17:03:08.606Z,17.28
2024-05-09T17:05:35.901Z,17.23
2024-05-09T17:08:02.989Z,17.15
2024-05-09T17:10:33.454Z,17.09
2024-05-09T17:13:02.755Z,17.02
2024-05-09T17:15:29.602Z,16.93
2024-05-09T17:17:56.304Z,16.83
2024-05-09T17:20:29.724Z,16.73
2024-05-09T17:23:01.489Z,16.61
2024-05-09T17:25:28.135Z,16.50
2024-05-09T17:27:54.749Z,16.40
2024-05-09T17:30:28.280Z,16.30
2024-05-09T17:32:59.058Z,16.17
2024-05-09T17:35:25.725Z,16.04
2024-05-09T17:37:52.245Z,15.94
2024-05-09T17:40:27.394Z,15.83
2024-05-09T17:42:59.162Z,15.73
2024-05-09T17:45:25.872Z,15.62
2024-05-09T17:47:52.490Z,15.51
2024-05-09T17:50:27.254Z,15.38
2024-05-09T17:53:00.441Z,15.21
2024-05-09T17:55:27.661Z,14.95
2024-05-09T17:57:54.384Z,14.72
2024-05-09T18:00:29.231Z,14.58
2024-05-09T18:03:04.012Z,14.45
2024-05-09T18:05:31.020Z,14.36
2024-05-09T18:07:57.658Z,14.30
2024-05-09T18:10:30.150Z,14.24
2024-05-09T18:13:02.681Z,14.17
2024-05-09T18:15:29.354Z,14.10
2024-05-09T18:17:55.909Z,14.04
2024-05-09T18:20:32.722Z,13.97
2024-05-09T18:23:07.470Z,13.89
2024-05-09T18:25:34.113Z,13.79
2024-05-09T18:28:04.849Z,13.67
2024-05-09T18:30:35.063Z,13.54
2024-05-09T18:33:05.010Z,13.38
2024-05-09T18:35:32.658Z,13.16
2024-05-09T18:37:59.212Z,12.90
2024-05-09T18:40:32.779Z,12.74
2024-05-09T18:43:03.678Z,12.65
2024-05-09T18:45:30.695Z,12.59
2024-05-09T18:47:57.678Z,12.56
2024-05-09T18:50:32.217Z,12.57
2024-05-09T18:53:05.247Z,12.57
2024-05-09T18:55:31.772Z,12.55
2024-05-09T18:57:58.345Z,12.51
2024-05-09T19:00:33.510Z,12.35
2024-05-09T19:03:04.702Z,12.10
2024-05-09T19:05:32.308Z,11.83
2024-05-09T19:07:59.060Z,11.58
2024-05-09T19:10:28.894Z,11.41
2024-05-09T19:12:59.947Z,11.28
2024-05-09T19:15:26.874Z,11.21
2024-05-09T19:17:53.403Z,11.16
2024-05-09T19:20:25.519Z,11.06
2024-05-09T19:22:58.394Z,10.94
2024-05-09T19:25:25.480Z,10.82
2024-05-09T19:27:51.949Z,10.70
2024-05-09T19:30:28.930Z,10.60
2024-05-09T19:33:03.022Z,10.46
2024-05-09T19:35:29.638Z,10.33
2024-05-09T19:37:56.174Z,10.21
2024-05-09T19:40:29.017Z,10.11
2024-05-09T19:42:58.868Z,10.08
2024-05-09T19:45:25.512Z,10.08
2024-05-09T19:47:52.352Z,10.03
2024-05-09T19:50:26.716Z,9.96
2024-05-09T19:52:59.564Z,9.88
2024-05-09T19:55:26.107Z,9.81
2024-05-09T19:57:52.764Z,9.75
2024-05-09T20:00:26.248Z,9.70
2024-05-09T20:02:58.776Z,9.63
2024-05-09T20:05:25.628Z,9.61
2024-05-09T20:07:52.883Z,9.60
2024-05-09T20:10:23.909Z,9.61
2024-05-09T20:12:56.148Z,9.62
2024-05-09T20:15:22.742Z,9.61
2024-05-09T20:17:49.551Z,9.56
2024-05-09T20:20:27.371Z,9.45
2024-05-09T20:22:59.946Z,9.34
2024-05-09T20:25:26.483Z,9.26
2024-05-09T20:27:53.090Z,9.19
2024-05-09T20:30:25.593Z,9.15
2024-05-09T20:32:58.220Z,9.10
2024-05-09T20:35:25.830Z,9.05
2024-05-09T20:37:52.260Z,9.00
2024-05-09T20:40:25.609Z,8.93
2024-05-09T20:42:57.988Z,8.88
2024-05-09T20:45:24.460Z,8.81
2024-05-09T20:47:51.069Z,8.71
2024-05-09T20:50:27.435Z,8.59
2024-05-09T20:52:59.620Z,8.45
2024-05-09T20:55:26.154Z,8.31
2024-05-09T20:57:52.732Z,8.15
2024-05-09T21:00:25.740Z,8.08
2024-05-09T21:02:56.985Z,8.11
2024-05-09T21:05:23.708Z,8.18
2024-05-09T21:07:50.344Z,8.26
2024-05-09T21:10:22.345Z,8.28
2024-05-09T21:12:50.456Z,8.28
2024-05-09T21:15:17.074Z,8.26
2024-05-09T21:17:43.661Z,8.23
2024-05-09T21:20:16.899Z,8.19
2024-05-09T21:22:46.600Z,8.15
2024-05-09T21:25:13.210Z,8.14
2024-05-09T21:27:39.943Z,8.11
2024-05-09T21:30:10.080Z,8.08
2024-05-09T21:32:40.027Z,8.05
2024-05-09T21:35:06.766Z,8.01
2024-05-09T21:37:33.279Z,7.97
2024-05-09T21:40:00.459Z,7.96
2024-05-09T21:42:27.173Z,7.96
2024-05-09T21:44:53.605Z,7.94
2024-05-09T21:47:19.947Z,7.90
2024-05-09T21:49:46.584Z,7.90
2024-05-09T21:52:13.044Z,7.89
2024-05-09T21:54:39.646Z,7.86
2024-05-09T21:57:08.523Z,7.82
2024-05-09T21:59:34.957Z,7.78
2024-05-09T22:02:01.844Z,7.72
2024-05-09T22:04:28.887Z,7.69
2024-05-09T22:06:56.520Z,7.69
2024-05-09T22:09:23.043Z,7.73
2024-05-09T22:11:52.055Z,7.75
2024-05-09T22:14:20.613Z,7.76
2024-05-09T22:16:47.151Z,7.73
2024-05-09T22:19:13.804Z,7.72
2024-05-09T22:21:40.327Z,7.71
2024-05-09T22:24:06.857Z,7.69
2024-05-09T22:26:36.155Z,7.66
2024-05-09T22:29:02.992Z,7.65
2024-05-09T22:31:29.550Z,7.62
2024-05-09T22:33:56.148Z,7.57
2024-05-09T22:36:22.901Z,7.52
2024-05-09T22:38:49.443Z,7.47
2024-05-09T22:41:15.872Z,7.44
2024-05-09T22:43:42.401Z,7.42
2024-05-09T22:46:09.205Z,7.40
2024-05-09T22:48:36.106Z,7.36
2024-05-09T22:51:03.438Z,7.30
2024-05-09T22:53:30.075Z,7.26
2024-05-09T22:55:56.534Z,7.22
2024-05-09T22:58:23.384Z,7.18
2024-05-09T23:00:50.250Z,7.14
2024-05-09T23:03:20.141Z,7.09
2024-05-09T23:05:47.048Z,7.05
2024-05-09T23:08:13.480Z,7.03
